sensor_id;sensor_type;location;lat;lon;timestamp;pressure;altitude;pressure_sealevel;temperature;humidity
48386;BME280;34644;47.964;7.982;2023-06-22T00:06:19;96605.22;;;22.55;65.40
48386;BME280;34644;47.964;7.982;2023-06-22T00:13:20;96610.28;;;22.56;64.80
48386;BME280;34644;47.964;7.982;2023-06-22T00:20:20;96620.44;;;22.77;64.10
48386;BME280;34644;47.964;7.982;2023-06-22T00:27:20;96613.09;;;23.00;63.75
48386;BME280;34644;47.964;7.982;2023-06-22T00:34:21;96606.94;;;23.00;63.49
48386;BME280;34644;47.964;7.982;2023-06-22T00:41:21;96605.50;;;23.02;63.29
48386;BME280;34644;47.964;7.982;2023-06-22T00:48:21;96601.22;;;22.92;63.41
48386;BME280;34644;47.964;7.982;2023-06-22T00:55:22;96602.19;;;23.05;62.83
48386;BME280;34644;47.964;7.982;2023-06-22T01:02:23;96609.41;;;22.79;63.26
48386;BME280;34644;47.964;7.982;2023-06-22T01:09:27;96609.78;;;22.94;62.54
48386;BME280;34644;47.964;7.982;2023-06-22T01:16:35;96606.13;;;22.99;62.86
48386;BME280;34644;47.964;7.982;2023-06-22T01:30:57;96604.59;;;22.58;63.21
48386;BME280;34644;47.964;7.982;2023-06-22T01:38:05;96598.22;;;22.85;62.44
48386;BME280;34644;47.964;7.982;2023-06-22T01:45:06;96582.13;;;22.36;63.67
48386;BME280;34644;47.964;7.982;2023-06-22T01:52:07;96584.59;;;22.82;62.15
48386;BME280;34644;47.964;7.982;2023-06-22T02:06:14;96559.91;;;22.22;63.28
48386;BME280;34644;47.964;7.982;2023-06-22T02:13:19;96561.78;;;22.44;62.38
48386;BME280;34644;47.964;7.982;2023-06-22T02:20:20;96562.13;;;22.69;61.94
48386;BME280;34644;47.964;7.982;2023-06-22T02:27:20;96554.22;;;22.64;61.43
48386;BME280;34644;47.964;7.982;2023-06-22T02:34:22;96535.28;;;22.60;61.66
48386;BME280;34644;47.964;7.982;2023-06-22T02:41:25;96524.91;;;22.36;62.13
48386;BME280;34644;47.964;7.982;2023-06-22T02:48:25;96530.38;;;22.62;61.27
48386;BME280;34644;47.964;7.982;2023-06-22T02:55:26;96506.50;;;22.61;61.38
48386;BME280;34644;47.964;7.982;2023-06-22T03:02:30;96501.91;;;22.61;61.69
48386;BME280;34644;47.964;7.982;2023-06-22T03:09:30;96508.31;;;22.25;61.92
48386;BME280;34644;47.964;7.982;2023-06-22T03:16:31;96501.88;;;22.35;61.55
48386;BME280;34644;47.964;7.982;2023-06-22T03:23:33;96507.88;;;22.32;61.85
48386;BME280;34644;47.964;7.982;2023-06-22T03:30:33;96502.22;;;22.51;61.28
48386;BME280;34644;47.964;7.982;2023-06-22T03:37:34;96489.72;;;22.37;61.41
48386;BME280;34644;47.964;7.982;2023-06-22T03:44:35;96488.78;;;21.62;63.39
48386;BME280;34644;47.964;7.982;2023-06-22T03:51:36;96486.97;;;21.80;62.99
48386;BME280;34644;47.964;7.982;2023-06-22T03:58:36;96487.50;;;21.99;62.51
48386;BME280;34644;47.964;7.982;2023-06-22T04:05:42;96486.81;;;21.85;62.81
48386;BME280;34644;47.964;7.982;2023-06-22T04:12:43;96481.66;;;21.89;63.00
48386;BME280;34644;47.964;7.982;2023-06-22T04:19:43;96475.84;;;21.95;63.04
48386;BME280;34644;47.964;7.982;2023-06-22T04:26:43;96479.47;;;21.99;63.13
48386;BME280;34644;47.964;7.982;2023-06-22T04:33:45;96482.31;;;21.40;65.42
48386;BME280;34644;47.964;7.982;2023-06-22T04:40:45;96483.31;;;21.44;66.03
48386;BME280;34644;47.964;7.982;2023-06-22T04:47:46;96494.31;;;21.65;65.90
48386;BME280;34644;47.964;7.982;2023-06-22T04:54:46;96483.06;;;21.86;65.66
48386;BME280;34644;47.964;7.982;2023-06-22T05:01:55;96494.13;;;22.33;63.22
48386;BME280;34644;47.964;7.982;2023-06-22T05:08:56;96477.75;;;22.52;62.34
48386;BME280;34644;47.964;7.982;2023-06-22T05:15:59;96471.75;;;22.64;62.39
48386;BME280;34644;47.964;7.982;2023-06-22T05:23:02;96475.84;;;22.70;62.42
48386;BME280;34644;47.964;7.982;2023-06-22T05:30:03;96471.13;;;22.76;61.98
48386;BME280;34644;47.964;7.982;2023-06-22T05:37:03;96473.97;;;22.80;61.83
48386;BME280;34644;47.964;7.982;2023-06-22T05:44:03;96474.94;;;22.84;61.87
48386;BME280;34644;47.964;7.982;2023-06-22T05:51:04;96471.63;;;22.87;61.82
48386;BME280;34644;47.964;7.982;2023-06-22T05:58:04;96477.16;;;22.90;61.34
48386;BME280;34644;47.964;7.982;2023-06-22T06:05:04;96441.91;;;22.92;61.30
48386;BME280;34644;47.964;7.982;2023-06-22T06:12:05;96439.34;;;22.95;61.18
48386;BME280;34644;47.964;7.982;2023-06-22T06:19:05;96485.19;;;22.99;61.13
48386;BME280;34644;47.964;7.982;2023-06-22T06:26:05;96466.88;;;23.01;61.31
48386;BME280;34644;47.964;7.982;2023-06-22T06:33:07;96494.22;;;23.03;61.17
48386;BME280;34644;47.964;7.982;2023-06-22T06:40:09;96515.06;;;23.06;61.27
48386;BME280;34644;47.964;7.982;2023-06-22T06:47:12;96548.31;;;23.10;60.89
48386;BME280;34644;47.964;7.982;2023-06-22T06:54:12;96583.25;;;23.10;60.91
48386;BME280;34644;47.964;7.982;2023-06-22T07:01:13;96632.13;;;23.12;61.00
48386;BME280;34644;47.964;7.982;2023-06-22T07:08:13;96643.97;;;23.11;61.01
48386;BME280;34644;47.964;7.982;2023-06-22T07:15:13;96622.97;;;23.14;60.92
48386;BME280;34644;47.964;7.982;2023-06-22T07:22:14;96615.03;;;23.17;60.72
48386;BME280;34644;47.964;7.982;2023-06-22T07:29:14;96626.59;;;23.18;60.85
48386;BME280;34644;47.964;7.982;2023-06-22T07:36:16;96616.94;;;23.17;60.70
48386;BME280;34644;47.964;7.982;2023-06-22T07:43:16;96640.97;;;23.22;60.61
48386;BME280;34644;47.964;7.982;2023-06-22T07:50:16;96603.03;;;23.23;60.54
48386;BME280;34644;47.964;7.982;2023-06-22T07:57:17;96576.63;;;23.25;60.57
48386;BME280;34644;47.964;7.982;2023-06-22T08:04:17;96560.16;;;23.27;60.63
48386;BME280;34644;47.964;7.982;2023-06-22T08:11:17;96529.66;;;23.32;60.37
48386;BME280;34644;47.964;7.982;2023-06-22T08:18:17;96512.88;;;23.35;60.33
48386;BME280;34644;47.964;7.982;2023-06-22T08:25:18;96534.84;;;23.37;60.36
48386;BME280;34644;47.964;7.982;2023-06-22T08:32:18;96518.41;;;23.38;60.39
48386;BME280;34644;47.964;7.982;2023-06-22T08:39:21;96495.94;;;23.43;60.15
48386;BME280;34644;47.964;7.982;2023-06-22T08:46:22;96500.22;;;23.44;60.30
48386;BME280;34644;47.964;7.982;2023-06-22T08:53:24;96480.44;;;23.48;60.17
48386;BME280;34644;47.964;7.982;2023-06-22T09:00:24;96477.44;;;23.50;60.24
48386;BME280;34644;47.964;7.982;2023-06-22T09:07:25;96471.41;;;23.53;59.99
48386;BME280;34644;47.964;7.982;2023-06-22T09:14:25;96456.06;;;23.54;60.12
48386;BME280;34644;47.964;7.982;2023-06-22T09:21:26;96444.00;;;23.60;59.90
48386;BME280;34644;47.964;7.982;2023-06-22T09:28:26;96428.78;;;23.64;59.98
48386;BME280;34644;47.964;7.982;2023-06-22T09:35:26;96416.59;;;23.66;59.89
48386;BME280;34644;47.964;7.982;2023-06-22T09:42:26;96419.91;;;23.72;59.84
48386;BME280;34644;47.964;7.982;2023-06-22T09:49:27;96413.06;;;23.75;60.00
48386;BME280;34644;47.964;7.982;2023-06-22T09:56:27;96416.72;;;23.79;59.82
48386;BME280;34644;47.964;7.982;2023-06-22T10:03:29;96423.00;;;23.83;59.75
48386;BME280;34644;47.964;7.982;2023-06-22T10:10:29;96405.47;;;23.86;59.73
48386;BME280;34644;47.964;7.982;2023-06-22T10:17:29;96383.28;;;23.89;59.53
48386;BME280;34644;47.964;7.982;2023-06-22T10:24:30;96382.00;;;23.95;59.43
48386;BME280;34644;47.964;7.982;2023-06-22T10:31:30;96400.19;;;23.98;59.39
48386;BME280;34644;47.964;7.982;2023-06-22T10:38:30;96397.94;;;24.00;59.26
48386;BME280;34644;47.964;7.982;2023-06-22T10:45:31;96410.63;;;23.99;59.43
48386;BME280;34644;47.964;7.982;2023-06-22T10:52:31;96424.88;;;24.00;59.45
48386;BME280;34644;47.964;7.982;2023-06-22T10:59:31;96433.38;;;24.02;59.42
48386;BME280;34644;47.964;7.982;2023-06-22T11:06:31;96479.16;;;24.02;59.32
48386;BME280;34644;47.964;7.982;2023-06-22T11:13:32;96500.97;;;24.09;59.23
48386;BME280;34644;47.964;7.982;2023-06-22T11:20:33;96491.47;;;24.12;59.27
48386;BME280;34644;47.964;7.982;2023-06-22T11:27:34;96500.16;;;24.17;59.33
48386;BME280;34644;47.964;7.982;2023-06-22T11:34:34;96481.78;;;24.19;59.23
48386;BME280;34644;47.964;7.982;2023-06-22T11:41:38;96499.81;;;24.19;59.17
48386;BME280;34644;47.964;7.982;2023-06-22T11:48:38;96489.06;;;24.19;59.21
48386;BME280;34644;47.964;7.982;2023-06-22T11:55:39;96477.97;;;24.20;59.17
48386;BME280;34644;47.964;7.982;2023-06-22T12:02:39;96476.06;;;24.21;59.35
48386;BME280;34644;47.964;7.982;2023-06-22T12:09:39;96458.78;;;24.22;59.25
48386;BME280;34644;47.964;7.982;2023-06-22T12:16:39;96474.16;;;24.22;59.36
48386;BME280;34644;47.964;7.982;2023-06-22T12:23:40;96481.09;;;24.23;59.20
48386;BME280;34644;47.964;7.982;2023-06-22T12:30:40;96486.97;;;24.25;58.98
48386;BME280;34644;47.964;7.982;2023-06-22T12:37:43;96511.66;;;24.27;59.17
48386;BME280;34644;47.964;7.982;2023-06-22T12:44:43;96541.75;;;24.29;58.90
48386;BME280;34644;47.964;7.982;2023-06-22T12:51:44;96544.94;;;24.31;58.94
48386;BME280;34644;47.964;7.982;2023-06-22T12:58:45;96524.50;;;24.30;58.95
48386;BME280;34644;47.964;7.982;2023-06-22T13:05:45;96530.81;;;24.34;58.98
48386;BME280;34644;47.964;7.982;2023-06-22T13:12:46;96523.66;;;24.38;58.70
48386;BME280;34644;47.964;7.982;2023-06-22T13:19:47;96518.25;;;24.38;58.87
48386;BME280;34644;47.964;7.982;2023-06-22T13:26:47;96510.66;;;24.40;58.94
48386;BME280;34644;47.964;7.982;2023-06-22T13:33:47;96516.19;;;24.44;58.59
48386;BME280;34644;47.964;7.982;2023-06-22T13:40:49;96510.00;;;24.43;58.89
48386;BME280;34644;47.964;7.982;2023-06-22T13:47:49;96529.19;;;24.42;58.92
48386;BME280;34644;47.964;7.982;2023-06-22T13:54:49;96559.16;;;24.40;58.81
48386;BME280;34644;47.964;7.982;2023-06-22T14:01:50;96526.81;;;24.40;58.81
48386;BME280;34644;47.964;7.982;2023-06-22T14:08:50;96492.78;;;24.35;58.87
48386;BME280;34644;47.964;7.982;2023-06-22T14:15:51;96491.19;;;24.34;58.82
48386;BME280;34644;47.964;7.982;2023-06-22T14:22:52;96493.56;;;24.36;59.02
48386;BME280;34644;47.964;7.982;2023-06-22T14:29:52;96480.88;;;24.36;58.94
48386;BME280;34644;47.964;7.982;2023-06-22T14:36:53;96471.25;;;24.35;59.08
48386;BME280;34644;47.964;7.982;2023-06-22T14:43:55;96466.75;;;24.39;60.09
48386;BME280;34644;47.964;7.982;2023-06-22T14:50:57;96475.66;;;24.40;59.63
48386;BME280;34644;47.964;7.982;2023-06-22T14:58:00;96475.97;;;24.38;60.02
48386;BME280;34644;47.964;7.982;2023-06-22T15:05:00;96476.31;;;24.37;61.19
48386;BME280;34644;47.964;7.982;2023-06-22T15:12:00;96461.69;;;24.17;59.38
48386;BME280;34644;47.964;7.982;2023-06-22T15:19:02;96475.34;;;24.03;57.37
48386;BME280;34644;47.964;7.982;2023-06-22T15:26:03;96457.41;;;24.16;58.56
48386;BME280;34644;47.964;7.982;2023-06-22T15:33:06;96460.09;;;24.16;58.32
48386;BME280;34644;47.964;7.982;2023-06-22T15:40:06;96449.28;;;23.95;58.11
48386;BME280;34644;47.964;7.982;2023-06-22T15:47:07;96445.63;;;23.99;58.33
48386;BME280;34644;47.964;7.982;2023-06-22T15:54:07;96430.88;;;23.97;58.51
48386;BME280;34644;47.964;7.982;2023-06-22T16:01:08;96434.06;;;23.99;59.23
48386;BME280;34644;47.964;7.982;2023-06-22T16:08:09;96453.22;;;23.97;60.12
48386;BME280;34644;47.964;7.982;2023-06-22T16:15:11;96467.16;;;23.91;60.24
48386;BME280;34644;47.964;7.982;2023-06-22T16:22:11;96462.28;;;23.84;60.27
48386;BME280;34644;47.964;7.982;2023-06-22T16:29:12;96448.69;;;23.80;59.65
48386;BME280;34644;47.964;7.982;2023-06-22T16:36:13;96401.69;;;23.87;58.94
48386;BME280;34644;47.964;7.982;2023-06-22T16:43:13;96467.72;;;23.66;61.09
48386;BME280;34644;47.964;7.982;2023-06-22T16:50:13;96460.00;;;23.56;59.49
48386;BME280;34644;47.964;7.982;2023-06-22T16:57:16;96420.72;;;23.64;59.22
48386;BME280;34644;47.964;7.982;2023-06-22T17:04:19;96408.22;;;23.68;59.45
48386;BME280;34644;47.964;7.982;2023-06-22T17:11:20;96460.94;;;23.60;60.22
48386;BME280;34644;47.964;7.982;2023-06-22T17:18:22;96450.78;;;23.66;59.95
48386;BME280;34644;47.964;7.982;2023-06-22T17:25:23;96495.88;;;23.69;58.60
48386;BME280;34644;47.964;7.982;2023-06-22T17:32:23;96463.75;;;23.73;58.29
48386;BME280;34644;47.964;7.982;2023-06-22T17:39:29;96503.63;;;23.71;57.67
48386;BME280;34644;47.964;7.982;2023-06-22T17:46:36;96482.72;;;23.85;58.35
48386;BME280;34644;47.964;7.982;2023-06-22T17:53:37;96511.50;;;23.93;59.92
48386;BME280;34644;47.964;7.982;2023-06-22T18:00:40;96590.50;;;23.89;58.29
48386;BME280;34644;47.964;7.982;2023-06-22T18:07:41;96696.56;;;23.88;58.23
48386;BME280;34644;47.964;7.982;2023-06-22T18:14:41;96674.88;;;23.84;59.79
48386;BME280;34644;47.964;7.982;2023-06-22T18:21:42;96660.59;;;23.14;59.71
48386;BME280;34644;47.964;7.982;2023-06-22T18:28:45;96654.28;;;23.27;60.40
48386;BME280;34644;47.964;7.982;2023-06-22T18:35:45;96651.25;;;23.20;60.18
48386;BME280;34644;47.964;7.982;2023-06-22T18:42:47;96669.16;;;23.42;59.90
48386;BME280;34644;47.964;7.982;2023-06-22T18:49:48;96658.25;;;23.47;59.91
48386;BME280;34644;47.964;7.982;2023-06-22T18:56:52;96679.13;;;23.41;59.87
48386;BME280;34644;47.964;7.982;2023-06-22T19:03:56;96685.56;;;23.23;59.74
48386;BME280;34644;47.964;7.982;2023-06-22T19:11:10;96697.00;;;23.37;59.86
48386;BME280;34644;47.964;7.982;2023-06-22T19:18:15;96716.13;;;23.44;60.08
48386;BME280;34644;47.964;7.982;2023-06-22T19:25:26;96723.75;;;23.42;60.09
48386;BME280;34644;47.964;7.982;2023-06-22T19:32:26;96736.47;;;22.79;61.33
48386;BME280;34644;47.964;7.982;2023-06-22T19:39:34;96739.69;;;22.58;63.11
48386;BME280;34644;47.964;7.982;2023-06-22T19:46:34;96726.22;;;22.50;64.29
48386;BME280;34644;47.964;7.982;2023-06-22T19:53:39;96721.75;;;22.45;64.38
48386;BME280;34644;47.964;7.982;2023-06-22T20:00:40;96734.16;;;22.32;64.81
48386;BME280;34644;47.964;7.982;2023-06-22T20:07:44;96744.28;;;22.35;64.82
48386;BME280;34644;47.964;7.982;2023-06-22T20:14:45;96724.28;;;22.19;65.20
48386;BME280;34644;47.964;7.982;2023-06-22T20:21:45;96720.59;;;22.15;65.84
48386;BME280;34644;47.964;7.982;2023-06-22T20:28:46;96716.19;;;21.96;66.64
48386;BME280;34644;47.964;7.982;2023-06-22T20:35:46;96714.88;;;22.08;66.41
48386;BME280;34644;47.964;7.982;2023-06-22T20:42:49;96732.25;;;22.55;65.07
48386;BME280;34644;47.964;7.982;2023-06-22T20:49:49;96730.72;;;21.95;66.70
48386;BME280;34644;47.964;7.982;2023-06-22T20:56:49;96731.94;;;22.57;64.53
48386;BME280;34644;47.964;7.982;2023-06-22T21:03:50;96745.31;;;22.48;65.04
48386;BME280;34644;47.964;7.982;2023-06-22T21:10:50;96755.34;;;22.20;66.45
48386;BME280;34644;47.964;7.982;2023-06-22T21:17:53;96757.25;;;21.46;68.06
48386;BME280;34644;47.964;7.982;2023-06-22T21:25:12;96772.03;;;22.08;66.09
48386;BME280;34644;47.964;7.982;2023-06-22T21:32:13;96777.00;;;21.64;67.06
48386;BME280;34644;47.964;7.982;2023-06-22T21:39:14;96764.09;;;21.25;67.65
48386;BME280;34644;47.964;7.982;2023-06-22T21:46:14;96770.88;;;21.50;66.33
48386;BME280;34644;47.964;7.982;2023-06-22T21:53:14;96773.81;;;21.35;66.89
48386;BME280;34644;47.964;7.982;2023-06-22T22:00:15;96777.59;;;21.06;67.24
48386;BME280;34644;47.964;7.982;2023-06-22T22:07:15;96788.31;;;21.20;66.94
48386;BME280;34644;47.964;7.982;2023-06-22T22:14:15;96788.53;;;21.37;66.00
48386;BME280;34644;47.964;7.982;2023-06-22T22:21:17;96779.94;;;22.13;63.71
48386;BME280;34644;47.964;7.982;2023-06-22T22:28:17;96780.72;;;22.14;64.35
48386;BME280;34644;47.964;7.982;2023-06-22T22:35:17;96787.56;;;22.20;64.42
48386;BME280;34644;47.964;7.982;2023-06-22T22:42:17;96792.75;;;22.16;64.51
48386;BME280;34644;47.964;7.982;2023-06-22T22:49:18;96797.16;;;20.92;68.63
48386;BME280;34644;47.964;7.982;2023-06-22T22:56:18;96799.88;;;20.21;71.97
48386;BME280;34644;47.964;7.982;2023-06-22T23:03:18;96796.34;;;21.06;68.68
48386;BME280;34644;47.964;7.982;2023-06-22T23:10:18;96806.91;;;21.72;66.49
48386;BME280;34644;47.964;7.982;2023-06-22T23:17:19;96816.25;;;22.11;65.02
48386;BME280;34644;47.964;7.982;2023-06-22T23:24:19;96803.69;;;22.20;64.63
48386;BME280;34644;47.964;7.982;2023-06-22T23:31:19;96825.56;;;22.13;64.70
48386;BME280;34644;47.964;7.982;2023-06-22T23:38:20;96840.47;;;22.19;64.91
48386;BME280;34644;47.964;7.982;2023-06-22T23:45:20;96846.63;;;22.20;64.97
48386;BME280;34644;47.964;7.982;2023-06-22T23:52:21;96866.81;;;21.81;66.25
48386;BME280;34644;47.964;7.982;2023-06-22T23:59:22;96883.09;;;21.71;67.39
